createdAt,value
2022-11-08T00:01:58.299Z,1.80
2022-11-08T00:04:26.107Z,1.52
2022-11-08T00:07:11.393Z,1.85
2022-11-08T00:09:56.686Z,1.75
2022-11-08T00:12:41.872Z,2.08
2022-11-08T00:15:11.407Z,1.50
2022-11-08T00:17:39.069Z,1.70
2022-11-08T00:20:08.793Z,1.70
2022-11-08T00:22:36.654Z,1.70
2022-11-08T00:25:04.661Z,2.65
2022-11-08T00:27:32.474Z,1.50
2022-11-08T00:30:00.103Z,1.50
2022-11-08T00:32:29.106Z,2.30
2022-11-08T00:34:56.710Z,1.67
2022-11-08T00:37:24.311Z,1.20
2022-11-08T00:39:51.857Z,1.88
2022-11-08T00:42:19.487Z,1.60
2022-11-08T00:44:47.076Z,1.75
2022-11-08T00:47:14.621Z,1.60
2022-11-08T00:49:43.709Z,1.40
2022-11-08T00:52:11.377Z,1.88
2022-11-08T00:54:39.124Z,2.22
2022-11-08T00:57:06.855Z,2.08
2022-11-08T00:59:34.687Z,1.30
2022-11-08T01:02:02.714Z,1.80
2022-11-08T01:04:30.532Z,1.60
2022-11-08T01:06:59.936Z,1.60
2022-11-08T01:09:27.568Z,2.53
2022-11-08T01:11:55.262Z,1.30
2022-11-08T01:14:22.873Z,1.55
2022-11-08T01:16:50.612Z,1.38
2022-11-08T01:19:18.334Z,1.60
2022-11-08T01:21:45.955Z,1.60
2022-11-08T01:24:14.936Z,1.45
2022-11-08T01:26:42.589Z,1.55
2022-11-08T01:29:10.195Z,1.60
2022-11-08T01:31:38.027Z,1.50
2022-11-08T01:34:05.770Z,1.30
2022-11-08T01:36:33.406Z,1.58
2022-11-08T01:39:01.203Z,1.75
2022-11-08T01:41:30.236Z,1.30
2022-11-08T01:43:58.901Z,1.67
2022-11-08T01:46:34.384Z,1.50
2022-11-08T01:49:20.025Z,1.77
2022-11-08T01:51:49.532Z,1.90
2022-11-08T01:54:19.249Z,1.48
2022-11-08T01:56:48.269Z,1.63
2022-11-08T01:59:17.367Z,1.58
2022-11-08T02:01:45.251Z,1.65
2022-11-08T02:04:13.707Z,1.40
2022-11-08T02:06:41.544Z,1.10
2022-11-08T02:09:09.841Z,1.40
2022-11-08T02:11:37.465Z,1.80
2022-11-08T02:14:06.774Z,2.25
2022-11-08T02:16:34.350Z,1.48
2022-11-08T02:19:01.908Z,1.77
2022-11-08T02:21:31.372Z,1.40
2022-11-08T02:24:01.390Z,1.40
2022-11-08T02:26:31.163Z,2.10
2022-11-08T02:28:59.025Z,1.73
2022-11-08T02:31:26.783Z,1.27
2022-11-08T02:33:54.454Z,1.40
2022-11-08T02:36:22.836Z,1.73
2022-11-08T02:38:52.865Z,1.60
2022-11-08T02:41:21.857Z,1.30
2022-11-08T02:43:49.468Z,1.35
2022-11-08T02:46:17.225Z,1.67
2022-11-08T02:48:44.855Z,1.50
2022-11-08T02:51:12.489Z,1.70
2022-11-08T02:53:40.300Z,1.65
2022-11-08T02:56:08.452Z,1.38
2022-11-08T02:58:37.503Z,1.30
2022-11-08T03:01:05.166Z,1.20
2022-11-08T03:03:32.817Z,1.50
2022-11-08T03:06:00.501Z,1.60
2022-11-08T03:08:28.199Z,1.40
2022-11-08T03:10:55.772Z,1.98
2022-11-08T03:13:23.328Z,1.20
2022-11-08T03:15:52.512Z,1.33
2022-11-08T03:18:20.488Z,1.30
2022-11-08T03:20:48.312Z,2.33
2022-11-08T03:23:16.024Z,1.10
2022-11-08T03:25:43.793Z,1.20
2022-11-08T03:28:11.469Z,1.25
2022-11-08T03:30:39.142Z,1.30
2022-11-08T03:33:08.239Z,1.38
2022-11-08T03:35:35.996Z,1.15
2022-11-08T03:38:03.709Z,1.88
2022-11-08T03:40:31.382Z,1.13
2022-11-08T03:42:59.125Z,1.17
2022-11-08T03:45:46.401Z,1.27
2022-11-08T03:48:35.683Z,1.70
2022-11-08T03:51:23.610Z,2.15
2022-11-08T03:53:51.436Z,1.30
2022-11-08T03:56:19.073Z,1.77
2022-11-08T03:58:46.655Z,1.48
2022-11-08T04:01:14.327Z,1.83
2022-11-08T04:03:43.369Z,1.50
2022-11-08T04:06:10.916Z,1.20
2022-11-08T04:08:38.524Z,1.40
2022-11-08T04:11:20.260Z,1.40
2022-11-08T04:14:05.350Z,2.67
2022-11-08T04:16:33.263Z,1.65
2022-11-08T04:19:20.121Z,1.75
2022-11-08T04:21:48.186Z,1.40
2022-11-08T04:24:15.789Z,1.20
2022-11-08T04:26:43.388Z,1.48
2022-11-08T04:29:10.970Z,1.40
2022-11-08T04:31:38.509Z,1.30
2022-11-08T04:34:07.640Z,1.33
2022-11-08T04:36:35.252Z,0.93
2022-11-08T04:39:02.930Z,1.30
2022-11-08T04:41:30.537Z,1.90
2022-11-08T04:43:58.298Z,2.22
2022-11-08T04:46:26.584Z,1.25
2022-11-08T04:48:55.943Z,1.10
2022-11-08T04:51:26.694Z,1.48
2022-11-08T04:53:54.988Z,1.33
2022-11-08T04:56:22.851Z,1.73
2022-11-08T04:58:51.597Z,1.50
2022-11-08T05:01:19.978Z,1.33
2022-11-08T05:03:48.246Z,1.48
2022-11-08T05:06:17.033Z,1.48
2022-11-08T05:08:46.099Z,1.30
2022-11-08T05:11:14.450Z,1.20
2022-11-08T05:13:42.256Z,1.95
2022-11-08T05:16:11.749Z,1.95
2022-11-08T05:18:41.699Z,2.05
2022-11-08T05:21:28.216Z,1.30
2022-11-08T05:23:57.096Z,1.23
2022-11-08T05:26:24.657Z,1.48
2022-11-08T05:28:52.249Z,1.70
2022-11-08T05:31:19.819Z,1.80
2022-11-08T05:33:47.760Z,1.35
2022-11-08T05:36:15.888Z,1.40
2022-11-08T05:38:43.459Z,1.45
2022-11-08T05:41:13.472Z,1.38
2022-11-08T05:43:41.129Z,1.55
2022-11-08T05:46:08.780Z,1.20
2022-11-08T05:48:36.448Z,1.45
2022-11-08T05:51:04.132Z,1.13
2022-11-08T05:53:32.053Z,1.27
2022-11-08T05:56:00.552Z,2.50
2022-11-08T05:58:29.821Z,1.30
2022-11-08T06:01:01.373Z,1.67
2022-11-08T06:03:29.902Z,1.38
2022-11-08T06:06:00.723Z,1.42
2022-11-08T06:08:28.333Z,1.95
2022-11-08T06:10:55.893Z,1.58
2022-11-08T06:13:23.661Z,1.65
2022-11-08T06:15:52.711Z,1.40
2022-11-08T06:18:20.377Z,1.98
2022-11-08T06:20:48.102Z,1.27
2022-11-08T06:23:16.887Z,1.35
2022-11-08T06:25:47.523Z,1.23
2022-11-08T06:28:15.666Z,1.25
2022-11-08T06:30:43.404Z,1.38
2022-11-08T06:33:12.437Z,1.45
2022-11-08T06:35:40.052Z,1.58
2022-11-08T06:38:09.525Z,1.58
2022-11-08T06:40:38.404Z,1.08
2022-11-08T06:43:06.047Z,1.20
2022-11-08T06:45:33.806Z,1.20
2022-11-08T06:48:01.994Z,2.15
2022-11-08T06:50:31.721Z,0.90
2022-11-08T06:52:59.369Z,1.05
2022-11-08T06:55:26.944Z,1.50
2022-11-08T06:57:54.528Z,1.50
2022-11-08T07:00:22.346Z,1.20
2022-11-08T07:02:53.190Z,3.20
2022-11-08T07:05:20.872Z,1.50
2022-11-08T07:07:52.076Z,2.45
2022-11-08T07:10:20.010Z,2.05
2022-11-08T07:12:48.072Z,1.67
2022-11-08T07:15:15.828Z,2.72
2022-11-08T07:17:43.440Z,1.85
2022-11-08T07:20:12.048Z,1.10
2022-11-08T07:22:39.660Z,2.50
2022-11-08T07:25:09.333Z,1.80
2022-11-08T07:27:37.167Z,8.82
2022-11-08T07:30:05.968Z,5.90
2022-11-08T07:32:33.665Z,9.73
2022-11-08T07:35:01.664Z,10.93
2022-11-08T07:37:29.256Z,13.43
2022-11-08T07:39:56.972Z,15.25
2022-11-08T07:42:34.244Z,19.90
2022-11-08T07:45:11.851Z,19.00
2022-11-08T07:47:39.423Z,14.80
2022-11-08T07:50:07.671Z,10.27
2022-11-08T07:52:35.233Z,11.48
2022-11-08T07:55:02.938Z,11.35
2022-11-08T07:57:32.101Z,8.68
2022-11-08T08:00:03.513Z,12.65
2022-11-08T08:02:34.178Z,8.30
2022-11-08T08:05:01.835Z,8.80
2022-11-08T08:07:29.611Z,10.68
2022-11-08T08:09:57.240Z,12.80
2022-11-08T08:12:24.972Z,10.63
2022-11-08T08:14:54.124Z,9.77
2022-11-08T08:17:21.859Z,6.88
2022-11-08T08:19:49.725Z,7.40
2022-11-08T08:22:17.518Z,6.93
2022-11-08T08:24:45.152Z,7.68
2022-11-08T08:27:12.749Z,8.13
2022-11-08T08:29:40.604Z,9.27
2022-11-08T08:32:09.620Z,7.75
2022-11-08T08:34:37.221Z,2.40
2022-11-08T08:37:04.983Z,3.63
2022-11-08T08:39:32.569Z,5.22
2022-11-08T08:42:00.384Z,5.00
2022-11-08T08:44:28.073Z,4.03
2022-11-08T08:46:56.637Z,4.07
2022-11-08T08:49:25.707Z,5.78
2022-11-08T08:51:53.344Z,6.95
2022-11-08T08:54:23.596Z,5.43
2022-11-08T08:56:53.619Z,7.10
2022-11-08T09:02:09.640Z,5.68
2022-11-08T09:04:39.041Z,5.75
2022-11-08T09:07:07.041Z,4.63
2022-11-08T09:09:36.170Z,3.80
2022-11-08T09:12:04.045Z,4.40
2022-11-08T09:14:31.611Z,5.10
2022-11-08T09:16:59.200Z,4.40
2022-11-08T09:19:26.797Z,5.95
2022-11-08T09:21:55.787Z,4.60
2022-11-08T09:24:23.662Z,4.00
2022-11-08T09:26:51.239Z,3.97
2022-11-08T09:29:18.776Z,3.83
2022-11-08T09:31:46.405Z,5.45
2022-11-08T09:34:16.340Z,4.10
2022-11-08T09:36:46.789Z,3.78
2022-11-08T09:39:16.331Z,4.40
2022-11-08T09:41:55.796Z,3.75
2022-11-08T09:44:34.176Z,3.15
2022-11-08T09:47:04.080Z,3.15
2022-11-08T09:49:33.076Z,8.23
2022-11-08T09:52:00.635Z,3.88
2022-11-08T09:54:32.475Z,4.53
2022-11-08T09:57:04.225Z,3.03
2022-11-08T09:59:35.306Z,3.78
2022-11-08T10:02:02.970Z,4.38
2022-11-08T10:04:31.887Z,3.53
2022-11-08T10:07:04.468Z,5.03
2022-11-08T10:09:41.587Z,5.45
2022-11-08T10:12:13.225Z,4.35
2022-11-08T10:14:53.740Z,11.40
2022-11-08T10:17:31.427Z,12.85
2022-11-08T10:20:07.181Z,12.20
2022-11-08T10:22:40.850Z,11.68
2022-11-08T10:25:18.595Z,13.48
2022-11-08T10:27:46.172Z,10.38
2022-11-08T10:30:17.631Z,10.98
2022-11-08T10:32:45.188Z,10.00
2022-11-08T10:35:18.828Z,10.52
2022-11-08T10:37:46.433Z,11.02
2022-11-08T10:40:18.121Z,10.68
2022-11-08T10:42:47.099Z,9.05
2022-11-08T10:45:14.739Z,10.20
2022-11-08T10:47:42.275Z,11.18
2022-11-08T10:50:14.176Z,10.63
2022-11-08T10:52:43.160Z,9.48
2022-11-08T10:55:10.822Z,10.10
2022-11-08T10:57:40.601Z,9.93
2022-11-08T11:00:18.910Z,11.38
2022-11-08T11:02:46.631Z,9.88
2022-11-08T11:05:21.961Z,11.77
2022-11-08T11:08:00.657Z,10.05
2022-11-08T11:10:30.620Z,12.93
2022-11-08T11:13:04.064Z,11.48
2022-11-08T11:15:36.130Z,11.95
2022-11-08T11:18:04.049Z,14.00
2022-11-08T11:20:31.685Z,13.80
2022-11-08T11:22:59.487Z,11.45
2022-11-08T11:25:27.206Z,10.98
2022-11-08T11:27:56.172Z,10.30
2022-11-08T11:30:29.190Z,12.07
2022-11-08T11:32:59.083Z,10.38
2022-11-08T11:35:28.078Z,9.38
2022-11-08T11:37:55.677Z,7.85
2022-11-08T11:40:27.413Z,6.88
2022-11-08T11:43:00.266Z,14.88
2022-11-08T11:45:31.443Z,11.25
2022-11-08T11:47:59.639Z,6.68
2022-11-08T11:50:33.096Z,8.82
2022-11-08T11:53:01.475Z,5.57
2022-11-08T11:55:33.857Z,5.57
2022-11-08T11:58:06.302Z,5.88
2022-11-08T12:00:35.673Z,12.10
2022-11-08T12:03:28.767Z,6.35
2022-11-08T12:06:08.519Z,6.32
2022-11-08T12:08:43.848Z,7.75
2022-11-08T12:11:22.486Z,5.25
2022-11-08T12:13:58.695Z,5.35
2022-11-08T12:16:30.127Z,5.35
2022-11-08T12:19:03.987Z,8.60
2022-11-08T12:21:34.395Z,9.27
2022-11-08T12:24:08.961Z,6.57
2022-11-08T12:26:39.218Z,4.80
2022-11-08T12:29:22.610Z,9.68
2022-11-08T12:31:58.700Z,5.40
2022-11-08T12:34:29.854Z,7.20
2022-11-08T12:37:05.656Z,5.45
2022-11-08T12:39:36.092Z,6.25
2022-11-08T12:42:32.290Z,5.20
2022-11-08T12:45:09.032Z,7.45
2022-11-08T12:47:40.817Z,3.60
2022-11-08T12:50:18.804Z,5.95
2022-11-08T12:52:54.496Z,5.35
2022-11-08T12:55:24.922Z,7.18
2022-11-08T12:57:52.615Z,4.03
2022-11-08T13:00:20.731Z,4.18
2022-11-08T13:02:56.839Z,7.00
2022-11-08T13:05:25.405Z,3.67
2022-11-08T13:07:54.838Z,3.92
2022-11-08T13:10:27.919Z,7.05
2022-11-08T13:13:16.099Z,4.13
2022-11-08T13:16:08.495Z,4.38
2022-11-08T13:18:37.544Z,3.38
2022-11-08T13:21:38.150Z,3.78
2022-11-08T13:24:50.611Z,2.97
2022-11-08T13:27:25.970Z,6.88
2022-11-08T13:29:53.671Z,2.95
2022-11-08T13:32:25.151Z,2.80
2022-11-08T13:34:56.395Z,3.83
2022-11-08T13:37:55.021Z,2.45
2022-11-08T13:40:33.520Z,2.95
2022-11-08T13:43:21.034Z,2.47
2022-11-08T13:45:48.750Z,2.47
2022-11-08T13:48:41.358Z,2.88
2022-11-08T13:51:29.729Z,3.30
2022-11-08T13:53:58.976Z,3.40
2022-11-08T13:56:45.501Z,1.90
2022-11-08T13:59:49.928Z,2.58
2022-11-08T14:02:39.874Z,2.50
2022-11-08T14:05:32.728Z,1.85
2022-11-08T14:08:22.468Z,2.20
2022-11-08T14:11:11.374Z,1.73
2022-11-08T14:14:00.572Z,1.95
2022-11-08T14:16:29.647Z,1.30
2022-11-08T14:19:07.086Z,1.77
2022-11-08T14:21:34.752Z,1.83
2022-11-08T14:24:03.796Z,2.80
2022-11-08T14:26:32.215Z,4.05
2022-11-08T14:29:00.630Z,4.68
2022-11-08T14:31:29.198Z,3.38
2022-11-08T14:33:56.884Z,1.83
2022-11-08T14:36:24.892Z,2.67
2022-11-08T14:39:00.385Z,2.85
2022-11-08T14:41:29.816Z,1.85
2022-11-08T14:43:58.490Z,4.03
2022-11-08T14:46:29.549Z,2.28
2022-11-08T14:48:58.049Z,2.53
2022-11-08T14:51:25.896Z,1.92
2022-11-08T14:53:54.025Z,2.40
2022-11-08T14:56:22.980Z,1.98
2022-11-08T14:58:52.991Z,1.52
2022-11-08T15:01:21.867Z,2.33
2022-11-08T15:03:53.127Z,2.78
2022-11-08T15:06:20.718Z,2.72
2022-11-08T15:08:50.246Z,2.58
2022-11-08T15:11:28.381Z,1.77
2022-11-08T15:13:59.397Z,1.60
2022-11-08T15:16:27.075Z,3.72
2022-11-08T15:18:54.840Z,1.70
2022-11-08T15:21:24.346Z,1.50
2022-11-08T15:23:53.244Z,2.38
2022-11-08T15:26:22.854Z,3.42
2022-11-08T15:29:02.261Z,8.85
2022-11-08T15:31:32.324Z,2.40
2022-11-08T15:33:59.968Z,2.78
2022-11-08T15:36:32.594Z,5.28
2022-11-08T15:39:00.197Z,2.35
2022-11-08T15:41:32.747Z,1.85
2022-11-08T15:44:25.764Z,1.90
2022-11-08T15:46:53.796Z,2.45
2022-11-08T15:49:22.337Z,5.03
2022-11-08T15:51:50.290Z,4.75
2022-11-08T15:54:18.182Z,5.22
2022-11-08T15:56:45.908Z,2.95
2022-11-08T15:59:18.666Z,4.13
2022-11-08T16:01:54.845Z,4.15
2022-11-08T16:04:22.460Z,2.22
2022-11-08T16:06:50.099Z,6.82
2022-11-08T16:09:17.717Z,1.80
2022-11-08T16:11:45.867Z,2.47
2022-11-08T16:14:15.886Z,2.08
2022-11-08T16:16:43.504Z,4.18
2022-11-08T16:19:18.529Z,2.72
2022-11-08T16:21:46.163Z,2.55
2022-11-08T16:24:13.727Z,3.03
2022-11-08T16:26:42.503Z,2.45
2022-11-08T16:29:17.393Z,3.78
2022-11-08T16:31:45.475Z,1.40
2022-11-08T16:34:13.081Z,2.30
2022-11-08T16:36:42.034Z,1.40
2022-11-08T16:39:10.522Z,9.07
2022-11-08T16:41:42.599Z,4.20
2022-11-08T16:44:10.783Z,5.57
2022-11-08T16:46:38.359Z,4.05
2022-11-08T16:49:06.447Z,2.80
2022-11-08T16:51:33.968Z,4.82
2022-11-08T16:54:03.866Z,2.47
2022-11-08T16:56:31.419Z,2.88
2022-11-08T16:58:59.028Z,2.22
2022-11-08T17:01:29.263Z,7.90
2022-11-08T17:03:56.869Z,2.80
2022-11-08T17:06:24.509Z,3.80
2022-11-08T17:08:52.111Z,3.35
2022-11-08T17:11:21.916Z,3.13
2022-11-08T17:13:49.526Z,2.88
2022-11-08T17:16:18.528Z,2.05
2022-11-08T17:18:51.274Z,2.22
2022-11-08T17:21:43.773Z,6.65
2022-11-08T17:24:08.276Z,2.70
2022-11-08T17:26:37.304Z,3.60
2022-11-08T17:29:06.546Z,1.90
2022-11-08T17:31:34.435Z,4.22
2022-11-08T17:34:01.994Z,4.50
2022-11-08T17:36:29.549Z,3.85
2022-11-08T17:38:57.108Z,2.03
2022-11-08T17:41:24.726Z,2.40
2022-11-08T17:43:53.796Z,5.32
2022-11-08T17:46:21.404Z,2.17
2022-11-08T17:48:49.028Z,4.68
2022-11-08T17:51:16.672Z,2.65
2022-11-08T17:53:44.294Z,4.38
2022-11-08T17:56:12.964Z,3.47
2022-11-08T17:58:41.137Z,5.78
2022-11-08T18:01:10.298Z,2.65
2022-11-08T18:03:38.021Z,1.92
2022-11-08T18:06:06.644Z,3.33
2022-11-08T18:08:34.847Z,3.08
2022-11-08T18:11:02.636Z,1.85
2022-11-08T18:13:30.350Z,1.60
2022-11-08T18:16:06.267Z,3.20
2022-11-08T18:18:35.240Z,1.88
2022-11-08T18:21:02.800Z,4.07
2022-11-08T18:23:30.425Z,1.92
2022-11-08T18:25:58.018Z,3.17
2022-11-08T18:28:25.822Z,1.60
2022-11-08T18:30:53.504Z,2.13
2022-11-08T18:33:21.431Z,2.42
2022-11-08T18:35:50.774Z,1.77
2022-11-08T18:38:18.307Z,1.50
2022-11-08T18:40:46.332Z,2.60
2022-11-08T18:43:13.884Z,4.25
2022-11-08T18:45:41.586Z,2.78
2022-11-08T18:48:09.191Z,1.92
2022-11-08T18:50:37.468Z,2.40
2022-11-08T18:53:07.036Z,2.28
2022-11-08T18:55:34.715Z,5.88
2022-11-08T18:58:02.332Z,2.80
2022-11-08T19:00:29.904Z,1.55
2022-11-08T19:02:57.520Z,3.58
2022-11-08T19:05:25.064Z,4.25
2022-11-08T19:07:52.622Z,2.88
2022-11-08T19:10:21.595Z,1.70
2022-11-08T19:12:49.155Z,1.75
2022-11-08T19:15:16.979Z,1.60
2022-11-08T19:17:48.444Z,1.45
2022-11-08T19:20:19.132Z,3.45
2022-11-08T19:22:46.721Z,1.40
2022-11-08T19:25:14.307Z,3.45
2022-11-08T19:27:43.244Z,2.15
2022-11-08T19:30:12.076Z,2.58
2022-11-08T19:32:39.614Z,4.43
2022-11-08T19:35:08.249Z,1.95
2022-11-08T19:37:35.971Z,1.60
2022-11-08T19:40:03.822Z,1.45
2022-11-08T19:42:31.436Z,4.75
2022-11-08T19:45:00.691Z,1.70
2022-11-08T19:47:28.302Z,2.40
2022-11-08T19:49:55.866Z,2.05
2022-11-08T19:52:23.495Z,1.63
2022-11-08T19:54:51.236Z,3.28
2022-11-08T19:57:18.775Z,1.65
2022-11-08T19:59:46.395Z,1.23
2022-11-08T20:02:15.400Z,2.03
2022-11-08T20:04:43.211Z,2.40
2022-11-08T20:07:10.837Z,2.58
2022-11-08T20:09:38.434Z,1.65
2022-11-08T20:12:06.208Z,3.97
2022-11-08T20:14:33.795Z,1.70
2022-11-08T20:17:01.348Z,3.90
2022-11-08T20:19:30.605Z,2.90
2022-11-08T20:21:58.528Z,3.15
2022-11-08T20:24:26.099Z,2.15
2022-11-08T20:26:55.329Z,3.55
2022-11-08T20:29:22.928Z,1.48
2022-11-08T20:31:51.046Z,2.42
2022-11-08T20:34:18.904Z,2.50
2022-11-08T20:36:48.388Z,4.85
2022-11-08T20:39:16.032Z,1.88
2022-11-08T20:41:43.725Z,1.40
2022-11-08T20:44:11.407Z,1.58
2022-11-08T20:46:39.030Z,1.80
2022-11-08T20:49:06.744Z,1.75
2022-11-08T20:51:34.408Z,1.65
2022-11-08T20:54:03.703Z,1.50
2022-11-08T20:56:31.309Z,2.15
2022-11-08T20:58:59.048Z,1.58
2022-11-08T21:01:27.845Z,1.67
2022-11-08T21:03:55.781Z,1.90
2022-11-08T21:06:24.841Z,1.33
2022-11-08T21:09:05.797Z,4.25
2022-11-08T21:11:39.101Z,2.72
2022-11-08T21:14:06.821Z,1.70
2022-11-08T21:16:59.399Z,1.40
2022-11-08T21:19:23.452Z,1.40
2022-11-08T21:21:51.068Z,1.92
2022-11-08T21:24:18.776Z,2.97
2022-11-08T21:26:47.817Z,1.90
2022-11-08T21:29:15.412Z,2.05
2022-11-08T21:31:43.054Z,1.30
2022-11-08T21:34:10.692Z,2.63
2022-11-08T21:36:38.274Z,2.13
2022-11-08T21:39:05.840Z,1.50
2022-11-08T21:41:33.479Z,4.00
2022-11-08T21:44:02.428Z,1.52
2022-11-08T21:46:30.072Z,2.25
2022-11-08T21:48:58.367Z,2.00
2022-11-08T21:51:25.982Z,1.60
2022-11-08T21:53:55.122Z,1.20
2022-11-08T21:56:23.649Z,2.00
2022-11-08T21:58:51.223Z,2.13
2022-11-08T22:01:22.264Z,1.48
2022-11-08T22:03:52.105Z,1.35
2022-11-08T22:06:21.436Z,1.30
2022-11-08T22:08:49.172Z,1.63
2022-11-08T22:11:16.757Z,1.83
2022-11-08T22:13:44.346Z,1.50
2022-11-08T22:16:11.994Z,1.58
2022-11-08T22:21:42.886Z,1.27
2022-11-08T22:24:11.939Z,2.15
2022-11-08T22:26:39.661Z,2.22
2022-11-08T22:29:07.512Z,1.70
2022-11-08T22:31:35.176Z,1.52
2022-11-08T22:34:04.280Z,1.40
2022-11-08T22:36:32.281Z,1.45
2022-11-08T22:39:00.046Z,1.35
2022-11-08T22:41:27.685Z,1.77
2022-11-08T22:43:55.454Z,1.30
2022-11-08T22:46:23.067Z,1.50
2022-11-08T22:48:50.624Z,2.33
2022-11-08T22:51:19.556Z,1.30
2022-11-08T22:53:47.119Z,2.10
2022-11-08T22:56:14.681Z,1.38
2022-11-08T22:58:42.314Z,1.85
2022-11-08T23:01:11.799Z,1.65
2022-11-08T23:03:39.524Z,1.35
2022-11-08T23:06:07.138Z,1.55
2022-11-08T23:08:36.111Z,1.58
2022-11-08T23:11:21.265Z,1.60
2022-11-08T23:14:06.529Z,1.67
2022-11-08T23:16:36.388Z,1.30
2022-11-08T23:19:23.577Z,1.35
2022-11-08T23:22:08.808Z,1.40
2022-11-08T23:24:37.783Z,2.00
2022-11-08T23:27:23.402Z,1.42
2022-11-08T23:30:08.701Z,1.35
2022-11-08T23:32:36.354Z,1.52
2022-11-08T23:35:04.241Z,2.10
2022-11-08T23:37:32.079Z,1.55
2022-11-08T23:40:18.476Z,1.35
2022-11-08T23:43:03.821Z,1.20
2022-11-08T23:45:31.504Z,1.23
2022-11-08T23:48:00.269Z,1.30
2022-11-08T23:50:27.825Z,1.40
2022-11-08T23:52:55.431Z,1.40
2022-11-08T23:55:24.447Z,1.52
2022-11-08T23:57:52.068Z,1.10
